createdAt,value
2018-05-24T00:02:11.925Z,11.20
2018-05-24T00:04:40.749Z,11.87
2018-05-24T00:07:08.841Z,11.30
2018-05-24T00:09:36.908Z,11.17
2018-05-24T00:12:05.736Z,11.40
2018-05-24T00:14:33.795Z,12.00
2018-05-24T00:17:02.717Z,11.70
2018-05-24T00:19:33.357Z,11.40
2018-05-24T00:22:01.449Z,13.33
2018-05-24T00:24:29.535Z,12.07
2018-05-24T00:26:57.587Z,13.73
2018-05-24T00:29:26.422Z,14.33
2018-05-24T00:31:54.483Z,13.30
2018-05-24T00:34:23.304Z,13.63
2018-05-24T00:36:51.396Z,12.93
2018-05-24T00:39:19.455Z,12.53
2018-05-24T00:41:48.289Z,12.60
2018-05-24T00:44:16.383Z,13.07
2018-05-24T00:46:44.407Z,13.83
2018-05-24T00:49:12.534Z,12.47
2018-05-24T00:51:40.598Z,13.63
2018-05-24T00:54:09.416Z,13.17
2018-05-24T00:56:37.503Z,13.63
2018-05-24T00:59:05.592Z,14.00
2018-05-24T01:01:33.684Z,13.63
2018-05-24T01:04:01.766Z,13.20
2018-05-24T01:06:29.831Z,12.57
2018-05-24T01:08:57.885Z,12.47
2018-05-24T01:11:25.948Z,11.87
2018-05-24T01:13:54.003Z,13.63
2018-05-24T01:16:22.104Z,14.83
2018-05-24T01:18:50.125Z,13.93
2018-05-24T01:21:18.196Z,14.07
2018-05-24T01:23:46.341Z,12.67
2018-05-24T01:26:14.399Z,12.87
2018-05-24T01:28:43.220Z,12.90
2018-05-24T01:31:11.312Z,13.27
2018-05-24T01:33:39.400Z,13.20
2018-05-24T01:36:07.488Z,14.10
2018-05-24T01:38:35.540Z,13.73
2018-05-24T01:41:04.367Z,14.40
2018-05-24T01:43:32.452Z,14.37
2018-05-24T01:46:00.513Z,13.60
2018-05-24T01:48:29.439Z,12.73
2018-05-24T01:50:57.528Z,12.50
2018-05-24T01:53:25.616Z,12.40
2018-05-24T01:55:53.680Z,12.23
2018-05-24T01:58:22.603Z,12.30
2018-05-24T02:00:50.667Z,12.10
2018-05-24T02:03:19.725Z,12.37
2018-05-24T02:05:47.879Z,13.07
2018-05-24T02:08:15.948Z,13.27
2018-05-24T02:10:44.871Z,12.70
2018-05-24T02:13:12.936Z,12.97
2018-05-24T02:15:41.761Z,12.40
2018-05-24T02:18:09.852Z,12.47
2018-05-24T02:20:37.904Z,12.03
2018-05-24T02:23:06.732Z,12.53
2018-05-24T02:25:34.820Z,11.80
2018-05-24T02:28:02.900Z,12.03
2018-05-24T02:30:30.956Z,11.77
2018-05-24T02:32:59.786Z,13.53
2018-05-24T02:35:27.876Z,12.80
2018-05-24T02:37:55.943Z,12.67
2018-05-24T02:40:24.044Z,13.77
2018-05-24T02:42:52.105Z,13.77
2018-05-24T02:45:20.925Z,13.20
2018-05-24T02:47:48.988Z,13.03
2018-05-24T02:50:17.814Z,13.53
2018-05-24T02:52:45.904Z,12.90
2018-05-24T02:55:13.964Z,13.87
2018-05-24T02:57:42.895Z,13.23
2018-05-24T03:00:10.956Z,13.73
2018-05-24T03:02:39.792Z,13.13
2018-05-24T03:05:07.843Z,13.23
2018-05-24T03:07:36.769Z,13.77
2018-05-24T03:10:04.820Z,13.73
2018-05-24T03:12:33.756Z,12.20
2018-05-24T03:15:01.838Z,13.30
2018-05-24T03:17:30.648Z,14.30
2018-05-24T03:19:58.708Z,13.07
2018-05-24T03:22:27.635Z,13.57
2018-05-24T03:24:55.688Z,13.23
2018-05-24T03:27:24.623Z,12.57
2018-05-24T03:29:52.695Z,12.80
2018-05-24T03:32:20.819Z,13.17
2018-05-24T03:34:48.879Z,13.13
2018-05-24T03:37:16.971Z,13.47
2018-05-24T03:39:45.052Z,12.83
2018-05-24T03:42:13.196Z,12.77
2018-05-24T03:44:41.248Z,13.40
2018-05-24T03:47:09.404Z,12.70
2018-05-24T03:49:37.464Z,13.17
2018-05-24T03:52:06.480Z,12.73
2018-05-24T03:54:34.479Z,13.37
2018-05-24T03:57:02.550Z,13.10
2018-05-24T04:03:04.892Z,12.60
2018-05-24T04:05:32.948Z,13.57
2018-05-24T04:08:01.881Z,13.80
2018-05-24T04:10:29.931Z,13.40
2018-05-24T04:12:58.759Z,14.47
2018-05-24T04:15:26.816Z,13.87
2018-05-24T04:17:55.868Z,13.23
2018-05-24T04:20:23.948Z,14.37
2018-05-24T04:22:52.007Z,15.13
2018-05-24T04:25:20.852Z,14.80
2018-05-24T04:27:48.916Z,14.63
2018-05-24T04:30:16.976Z,14.40
2018-05-24T04:32:45.912Z,14.77
2018-05-24T04:35:13.976Z,14.80
2018-05-24T04:37:42.789Z,14.97
2018-05-24T04:40:10.835Z,14.57
2018-05-24T04:42:40.408Z,14.13
2018-05-24T04:45:08.500Z,14.90
2018-05-24T04:47:36.667Z,15.03
2018-05-24T04:50:04.719Z,15.00
2018-05-24T04:52:33.665Z,14.50
2018-05-24T04:55:01.721Z,14.73
2018-05-24T04:57:30.556Z,14.23
2018-05-24T04:59:58.608Z,13.60
2018-05-24T05:02:27.537Z,13.37
2018-05-24T05:04:55.595Z,13.30
2018-05-24T05:07:24.420Z,13.40
2018-05-24T05:09:52.512Z,13.23
2018-05-24T05:12:20.591Z,13.93
2018-05-24T05:14:48.661Z,13.20
2018-05-24T05:17:16.761Z,13.40
2018-05-24T05:19:44.824Z,13.77
2018-05-24T05:22:13.652Z,12.77
2018-05-24T05:24:41.738Z,13.77
2018-05-24T05:27:09.793Z,13.07
2018-05-24T05:29:38.710Z,13.17
2018-05-24T05:32:06.815Z,13.10
2018-05-24T05:34:34.875Z,13.07
2018-05-24T05:37:03.696Z,14.20
2018-05-24T05:39:31.760Z,14.57
2018-05-24T05:42:00.688Z,14.20
2018-05-24T05:44:28.782Z,14.40
2018-05-24T05:46:56.859Z,14.60
2018-05-24T05:49:24.924Z,14.87
2018-05-24T05:51:53.784Z,14.67
2018-05-24T05:54:22.125Z,14.67
2018-05-24T05:56:50.175Z,15.50
2018-05-24T05:59:18.303Z,15.47
2018-05-24T06:01:46.424Z,15.70
2018-05-24T06:04:15.187Z,15.50
2018-05-24T06:06:43.244Z,14.70
2018-05-24T06:09:12.220Z,15.03
2018-05-24T06:11:40.272Z,13.90
2018-05-24T06:14:08.335Z,14.53
2018-05-24T06:16:36.392Z,14.83
2018-05-24T06:19:04.528Z,14.00
2018-05-24T06:21:32.636Z,13.93
2018-05-24T06:24:01.412Z,14.77
2018-05-24T06:26:29.467Z,14.87
2018-05-24T06:28:58.404Z,15.13
2018-05-24T06:31:26.462Z,15.50
2018-05-24T06:33:55.297Z,14.40
2018-05-24T06:36:23.353Z,14.67
2018-05-24T06:38:52.180Z,14.83
2018-05-24T06:41:20.264Z,15.33
2018-05-24T06:43:48.345Z,15.23
2018-05-24T06:46:16.396Z,14.50
2018-05-24T06:48:45.435Z,15.07
2018-05-24T06:51:13.495Z,14.57
2018-05-24T06:53:42.371Z,15.03
2018-05-24T06:56:10.507Z,14.50
2018-05-24T06:58:38.592Z,14.87
2018-05-24T07:01:06.660Z,14.80
2018-05-24T07:03:34.720Z,15.40
2018-05-24T07:06:02.842Z,14.97
2018-05-24T07:08:31.614Z,14.60
2018-05-24T07:10:59.760Z,14.13
2018-05-24T07:13:27.732Z,15.77
2018-05-24T07:15:55.819Z,15.33
2018-05-24T07:18:23.876Z,14.83
2018-05-24T07:20:51.945Z,15.37
2018-05-24T07:23:20.764Z,14.47
2018-05-24T07:25:48.827Z,14.87
2018-05-24T07:28:17.663Z,14.47
2018-05-24T07:30:45.725Z,13.73
2018-05-24T07:33:14.647Z,14.73
2018-05-24T07:35:42.731Z,14.23
2018-05-24T07:38:10.795Z,14.70
2018-05-24T07:40:39.629Z,14.97
2018-05-24T07:43:07.709Z,14.50
2018-05-24T07:45:35.788Z,15.23
2018-05-24T07:48:03.879Z,15.97
2018-05-24T07:50:31.941Z,15.50
2018-05-24T07:53:00.840Z,15.67
2018-05-24T07:55:29.676Z,16.13
2018-05-24T07:57:57.735Z,15.57
2018-05-24T08:00:26.640Z,15.50
2018-05-24T08:02:55.459Z,15.60
2018-05-24T08:05:23.524Z,16.37
2018-05-24T08:07:52.463Z,15.83
2018-05-24T08:10:20.544Z,15.90
2018-05-24T08:12:48.599Z,17.37
2018-05-24T08:15:17.423Z,16.50
2018-05-24T08:17:45.512Z,15.97
2018-05-24T08:20:13.588Z,16.87
2018-05-24T08:22:41.649Z,18.33
2018-05-24T08:25:10.475Z,16.67
2018-05-24T08:27:38.569Z,17.77
2018-05-24T08:30:06.952Z,18.00
2018-05-24T08:32:35.005Z,18.33
2018-05-24T08:35:03.887Z,19.03
2018-05-24T08:37:31.928Z,19.00
2018-05-24T08:39:59.995Z,19.07
2018-05-24T08:42:28.060Z,19.07
2018-05-24T08:44:56.184Z,18.37
2018-05-24T08:47:24.332Z,18.37
2018-05-24T08:49:53.175Z,18.95
2018-05-24T08:52:21.236Z,19.48
2018-05-24T08:54:50.072Z,18.55
2018-05-24T08:57:18.126Z,17.98
2018-05-24T08:59:46.195Z,19.20
2018-05-24T09:02:15.067Z,20.30
2018-05-24T09:04:43.124Z,20.60
2018-05-24T09:07:11.192Z,19.85
2018-05-24T09:09:39.252Z,20.33
2018-05-24T09:12:08.086Z,19.62
2018-05-24T09:14:36.187Z,19.50
2018-05-24T09:17:04.360Z,20.80
2018-05-24T09:19:32.421Z,19.77
2018-05-24T09:22:01.357Z,17.75
2018-05-24T09:24:29.407Z,17.70
2018-05-24T09:26:58.340Z,17.17
2018-05-24T09:29:26.430Z,17.87
2018-05-24T09:31:55.337Z,16.85
2018-05-24T09:34:23.392Z,15.60
2018-05-24T09:36:52.326Z,14.40
2018-05-24T09:39:20.403Z,13.62
2018-05-24T09:41:48.469Z,11.82
2018-05-24T09:44:17.292Z,13.05
2018-05-24T09:46:45.361Z,13.20
2018-05-24T09:49:13.460Z,11.73
2018-05-24T09:51:41.527Z,10.63
2018-05-24T09:54:09.584Z,10.10
2018-05-24T09:56:37.652Z,10.20
2018-05-24T09:59:05.799Z,10.15
2018-05-24T10:01:33.869Z,9.70
2018-05-24T10:04:02.687Z,11.02
2018-05-24T10:06:30.777Z,10.60
2018-05-24T10:08:58.861Z,10.10
2018-05-24T10:11:26.937Z,9.88
2018-05-24T10:13:55.744Z,9.98
2018-05-24T10:16:23.920Z,8.68
2018-05-24T10:18:51.859Z,6.87
2018-05-24T10:21:20.716Z,6.80
2018-05-24T10:23:48.800Z,5.85
2018-05-24T10:26:16.887Z,4.50
2018-05-24T10:28:44.933Z,4.68
2018-05-24T10:31:13.768Z,5.80
2018-05-24T10:33:41.812Z,6.18
2018-05-24T10:36:09.872Z,6.30
2018-05-24T10:38:37.921Z,5.68
2018-05-24T10:41:05.972Z,5.43
2018-05-24T10:43:34.820Z,5.00
2018-05-24T10:46:02.872Z,5.37
2018-05-24T10:48:31.696Z,4.37
2018-05-24T10:50:59.850Z,3.80
2018-05-24T10:53:27.871Z,3.40
2018-05-24T10:55:56.032Z,2.35
2018-05-24T10:58:23.996Z,2.87
2018-05-24T11:00:52.059Z,2.45
2018-05-24T11:03:20.106Z,2.30
2018-05-24T11:05:48.168Z,2.00
2018-05-24T11:08:16.996Z,2.53
2018-05-24T11:10:45.040Z,2.40
2018-05-24T11:13:13.863Z,2.95
2018-05-24T11:15:41.907Z,2.25
2018-05-24T11:18:11.469Z,2.97
2018-05-24T11:20:40.392Z,3.15
2018-05-24T11:23:08.444Z,2.87
2018-05-24T11:25:37.280Z,3.10
2018-05-24T11:28:05.335Z,3.70
2018-05-24T11:30:34.164Z,3.15
2018-05-24T11:33:02.220Z,2.92
2018-05-24T11:35:31.032Z,2.60
2018-05-24T11:37:59.951Z,2.50
2018-05-24T11:40:27.995Z,2.55
2018-05-24T11:42:56.125Z,2.58
2018-05-24T11:45:24.176Z,2.58
2018-05-24T11:47:52.996Z,2.97
2018-05-24T11:50:21.101Z,2.80
2018-05-24T11:52:49.179Z,3.20
2018-05-24T11:55:17.226Z,3.70
2018-05-24T11:57:45.272Z,3.47
2018-05-24T12:00:13.332Z,3.60
2018-05-24T12:02:41.424Z,3.47
2018-05-24T12:05:09.536Z,4.40
2018-05-24T12:07:37.567Z,4.20
2018-05-24T12:10:06.396Z,5.35
2018-05-24T12:12:34.479Z,5.50
2018-05-24T12:15:02.661Z,6.03
2018-05-24T12:17:30.643Z,5.82
2018-05-24T12:19:58.736Z,5.90
2018-05-24T12:22:26.788Z,6.97
2018-05-24T12:24:55.620Z,6.28
2018-05-24T12:27:23.681Z,6.18
2018-05-24T12:29:52.496Z,6.47
2018-05-24T12:32:20.551Z,5.65
2018-05-24T12:34:48.596Z,5.78
2018-05-24T12:37:16.657Z,6.28
2018-05-24T12:39:44.752Z,5.75
2018-05-24T12:42:12.804Z,5.90
2018-05-24T12:44:41.615Z,6.05
2018-05-24T12:47:09.717Z,5.95
2018-05-24T12:49:38.507Z,6.53
2018-05-24T12:52:06.559Z,6.37
2018-05-24T12:54:34.603Z,6.07
2018-05-24T12:57:02.675Z,5.60
2018-05-24T12:59:30.777Z,6.45
2018-05-24T13:01:58.771Z,5.30
2018-05-24T13:04:26.821Z,5.40
2018-05-24T13:06:54.910Z,4.53
2018-05-24T13:09:23.004Z,4.43
2018-05-24T13:11:51.053Z,4.68
2018-05-24T13:14:19.883Z,5.18
2018-05-24T13:16:47.932Z,5.12
2018-05-24T13:19:16.761Z,5.60
2018-05-24T13:21:44.851Z,5.07
2018-05-24T13:24:12.913Z,5.12
2018-05-24T13:26:41.740Z,5.68
2018-05-24T13:29:10.584Z,4.93
2018-05-24T13:31:38.651Z,5.00
2018-05-24T13:34:06.916Z,5.07
2018-05-24T13:36:34.967Z,4.70
2018-05-24T13:39:03.020Z,5.00
2018-05-24T13:41:31.068Z,5.50
2018-05-24T13:43:59.155Z,5.37
2018-05-24T13:46:27.243Z,4.50
2018-05-24T13:48:55.300Z,5.10
2018-05-24T13:51:24.115Z,4.95
2018-05-24T13:53:52.171Z,4.57
2018-05-24T13:56:20.254Z,4.50
2018-05-24T13:58:48.404Z,4.90
2018-05-24T14:01:16.472Z,4.75
2018-05-24T14:03:44.527Z,4.40
2018-05-24T14:06:13.355Z,4.00
2018-05-24T14:08:41.720Z,4.12
2018-05-24T14:11:10.531Z,4.22
2018-05-24T14:13:39.363Z,3.95
2018-05-24T14:16:07.416Z,4.07
2018-05-24T14:18:36.344Z,3.90
2018-05-24T14:21:04.388Z,3.95
2018-05-24T14:23:32.445Z,3.70
2018-05-24T14:26:00.486Z,3.90
2018-05-24T14:28:28.543Z,3.65
2018-05-24T14:30:57.388Z,3.65
2018-05-24T14:33:25.469Z,3.62
2018-05-24T14:35:53.555Z,3.35
2018-05-24T14:38:21.625Z,3.67
2018-05-24T14:40:49.670Z,3.80
2018-05-24T14:43:17.730Z,3.55
2018-05-24T14:45:45.771Z,3.70
2018-05-24T14:48:13.827Z,3.70
2018-05-24T14:50:41.964Z,4.07
2018-05-24T14:53:10.044Z,4.00
2018-05-24T14:55:38.955Z,4.32
2018-05-24T14:58:06.995Z,4.25
2018-05-24T15:00:35.048Z,3.75
2018-05-24T15:03:03.107Z,4.12
2018-05-24T15:05:31.195Z,3.85
2018-05-24T15:07:59.272Z,4.20
2018-05-24T15:10:27.364Z,4.30
2018-05-24T15:12:55.412Z,3.70
2018-05-24T15:15:24.265Z,4.18
2018-05-24T15:17:52.336Z,4.12
2018-05-24T15:20:20.391Z,3.58
2018-05-24T15:22:49.200Z,3.75
2018-05-24T15:25:17.250Z,3.80
2018-05-24T15:27:45.304Z,3.72
2018-05-24T15:30:13.360Z,3.95
2018-05-24T15:32:41.452Z,3.75
2018-05-24T15:35:09.544Z,3.65
2018-05-24T15:37:37.636Z,3.72
2018-05-24T15:40:05.722Z,3.80
2018-05-24T15:42:33.767Z,3.53
2018-05-24T15:45:02.605Z,3.47
2018-05-24T15:47:30.687Z,3.47
2018-05-24T15:49:58.744Z,3.50
2018-05-24T15:52:27.560Z,3.35
2018-05-24T15:54:55.662Z,3.30
2018-05-24T15:57:23.747Z,3.62
2018-05-24T15:59:51.802Z,3.58
2018-05-24T16:02:20.619Z,3.67
2018-05-24T16:04:48.716Z,3.45
2018-05-24T16:07:16.767Z,3.50
2018-05-24T16:09:45.593Z,3.55
2018-05-24T16:12:13.643Z,3.30
2018-05-24T16:14:41.691Z,3.22
2018-05-24T16:17:09.760Z,3.15
2018-05-24T16:19:37.896Z,3.30
2018-05-24T16:22:06.027Z,3.20
2018-05-24T16:24:34.093Z,3.55
2018-05-24T16:27:03.019Z,3.20
2018-05-24T16:29:31.076Z,3.58
2018-05-24T16:32:00.008Z,3.10
2018-05-24T16:34:28.093Z,3.08
2018-05-24T16:36:56.144Z,3.25
2018-05-24T16:39:24.963Z,3.40
2018-05-24T16:41:53.021Z,3.40
2018-05-24T16:44:21.064Z,3.65
2018-05-24T16:46:49.119Z,3.53
2018-05-24T16:49:17.176Z,3.30
2018-05-24T16:51:45.296Z,3.80
2018-05-24T16:54:13.389Z,3.58
2018-05-24T16:56:41.395Z,4.05
2018-05-24T16:59:09.450Z,4.03
2018-05-24T17:01:37.533Z,8.65
2018-05-24T17:04:05.623Z,3.28
2018-05-24T17:06:33.715Z,3.28
2018-05-24T17:09:01.800Z,3.42
2018-05-24T17:11:29.860Z,3.55
2018-05-24T17:13:58.675Z,3.40
2018-05-24T17:16:26.728Z,3.25
2018-05-24T17:18:55.544Z,3.22
2018-05-24T17:21:24.436Z,3.20
2018-05-24T17:23:53.251Z,3.67
2018-05-24T17:26:22.184Z,3.60
2018-05-24T17:28:50.234Z,3.28
2018-05-24T17:31:19.072Z,3.65
2018-05-24T17:33:47.115Z,3.50
2018-05-24T17:36:15.949Z,3.67
2018-05-24T17:38:44.016Z,3.60
2018-05-24T17:41:12.940Z,3.70
2018-05-24T17:43:40.988Z,3.25
2018-05-24T17:46:09.884Z,3.50
2018-05-24T17:48:38.696Z,3.30
2018-05-24T17:51:07.515Z,3.70
2018-05-24T17:53:36.346Z,3.70
2018-05-24T17:56:04.424Z,3.80
2018-05-24T18:01:42.397Z,3.80
2018-05-24T18:04:10.526Z,3.90
2018-05-24T18:06:38.562Z,3.83
2018-05-24T18:09:06.633Z,3.73
2018-05-24T18:11:34.679Z,3.70
2018-05-24T18:14:03.500Z,3.83
2018-05-24T18:16:32.306Z,3.60
2018-05-24T18:19:00.346Z,3.67
2018-05-24T18:21:28.479Z,3.63
2018-05-24T18:23:56.518Z,3.50
2018-05-24T18:26:24.567Z,3.63
2018-05-24T18:28:52.630Z,4.27
2018-05-24T18:31:20.674Z,3.80
2018-05-24T18:33:48.818Z,4.10
2018-05-24T18:36:16.914Z,4.10
2018-05-24T18:38:44.982Z,3.83
2018-05-24T18:41:13.024Z,3.70
2018-05-24T18:43:41.150Z,4.27
2018-05-24T18:46:09.219Z,3.63
2018-05-24T18:48:37.276Z,3.87
2018-05-24T18:51:05.330Z,4.10
2018-05-24T18:53:33.367Z,3.97
2018-05-24T18:56:02.307Z,4.23
2018-05-24T18:58:30.318Z,3.90
2018-05-24T19:00:58.374Z,3.93
2018-05-24T19:03:26.406Z,3.97
2018-05-24T19:05:54.457Z,4.53
2018-05-24T19:08:22.513Z,6.77
2018-05-24T19:10:50.559Z,4.77
2018-05-24T19:13:18.678Z,4.40
2018-05-24T19:15:46.722Z,4.40
2018-05-24T19:18:14.770Z,4.23
2018-05-24T19:20:42.807Z,4.50
2018-05-24T19:23:11.618Z,4.63
2018-05-24T19:25:40.454Z,4.63
2018-05-24T19:28:08.516Z,4.63
2018-05-24T19:30:36.604Z,4.50
2018-05-24T19:33:04.672Z,4.80
2018-05-24T19:35:33.482Z,4.70
2018-05-24T19:38:02.282Z,4.93
2018-05-24T19:40:31.082Z,4.57
2018-05-24T19:42:59.995Z,4.60
2018-05-24T19:45:28.035Z,5.23
2018-05-24T19:47:56.138Z,4.80
2018-05-24T19:50:24.174Z,5.17
2018-05-24T19:52:52.959Z,5.37
2018-05-24T19:55:20.997Z,4.67
2018-05-24T19:57:49.841Z,5.20
2018-05-24T20:00:17.876Z,5.13
2018-05-24T20:02:45.919Z,5.37
2018-05-24T20:05:13.972Z,5.27
2018-05-24T20:07:42.799Z,5.47
2018-05-24T20:10:10.887Z,5.20
2018-05-24T20:12:39.697Z,5.57
2018-05-24T20:15:10.607Z,5.63
2018-05-24T20:17:39.444Z,5.60
2018-05-24T20:20:07.524Z,5.33
2018-05-24T20:22:35.523Z,5.37
2018-05-24T20:25:03.575Z,5.57
2018-05-24T20:27:32.390Z,5.30
2018-05-24T20:30:00.533Z,5.20
2018-05-24T20:32:29.260Z,5.63
2018-05-24T20:34:58.058Z,5.70
2018-05-24T20:37:27.086Z,5.53
2018-05-24T20:39:55.126Z,5.57
2018-05-24T20:42:23.253Z,5.83
2018-05-24T20:44:51.299Z,6.13
2018-05-24T20:47:19.427Z,5.30
2018-05-24T20:49:47.468Z,5.60
2018-05-24T20:52:15.596Z,5.50
2018-05-24T20:54:43.639Z,5.80
2018-05-24T20:57:11.689Z,5.87
2018-05-24T20:59:39.746Z,5.40
2018-05-24T21:02:07.790Z,5.43
2018-05-24T21:04:35.830Z,5.33
2018-05-24T21:07:03.881Z,5.90
2018-05-24T21:09:32.683Z,4.90
2018-05-24T21:12:01.501Z,5.73
2018-05-24T21:14:29.590Z,5.60
2018-05-24T21:16:57.634Z,5.17
2018-05-24T21:19:25.678Z,5.67
2018-05-24T21:21:53.723Z,5.53
2018-05-24T21:24:22.547Z,5.47
2018-05-24T21:26:50.586Z,5.87
2018-05-24T21:29:18.702Z,5.70
2018-05-24T21:31:47.517Z,6.03
2018-05-24T21:34:15.567Z,5.60
2018-05-24T21:36:43.697Z,5.90
2018-05-24T21:39:11.742Z,6.37
2018-05-24T21:41:39.782Z,5.77
2018-05-24T21:44:07.855Z,5.73
2018-05-24T21:46:35.891Z,6.20
2018-05-24T21:49:03.930Z,6.43
2018-05-24T21:51:31.971Z,6.43
2018-05-24T21:54:00.806Z,6.57
2018-05-24T21:56:28.894Z,6.60
2018-05-24T21:58:56.946Z,6.37
2018-05-24T22:01:25.755Z,7.20
2018-05-24T22:03:54.565Z,7.13
2018-05-24T22:06:23.378Z,6.97
2018-05-24T22:08:51.423Z,6.53
2018-05-24T22:11:19.471Z,6.93
2018-05-24T22:13:47.516Z,6.43
2018-05-24T22:16:15.576Z,6.60
2018-05-24T22:18:43.601Z,6.40
2018-05-24T22:21:11.683Z,6.60
2018-05-24T22:23:39.734Z,7.07
2018-05-24T22:26:07.855Z,6.40
2018-05-24T22:28:35.938Z,6.93
2018-05-24T22:31:04.030Z,7.00
2018-05-24T22:33:32.181Z,6.60
2018-05-24T22:36:00.218Z,6.53
2018-05-24T22:38:28.266Z,6.73
2018-05-24T22:40:57.085Z,6.47
2018-05-24T22:43:25.126Z,6.90
2018-05-24T22:45:53.163Z,7.27
2018-05-24T22:48:21.213Z,7.57
2018-05-24T22:50:50.046Z,7.67
2018-05-24T22:53:18.078Z,7.57
2018-05-24T22:55:46.133Z,7.60
2018-05-24T22:58:14.196Z,7.20
2018-05-24T23:00:42.252Z,7.37
2018-05-24T23:03:11.084Z,7.53
2018-05-24T23:05:39.865Z,7.50
2018-05-24T23:08:08.661Z,7.70
2018-05-24T23:10:37.582Z,7.30
2018-05-24T23:13:05.631Z,7.13
2018-05-24T23:15:33.683Z,6.93
2018-05-24T23:18:01.718Z,6.90
2018-05-24T23:20:30.525Z,6.80
2018-05-24T23:22:59.329Z,6.80
2018-05-24T23:25:28.242Z,7.67
2018-05-24T23:27:56.326Z,7.00
2018-05-24T23:30:24.375Z,7.13
2018-05-24T23:32:52.502Z,7.73
2018-05-24T23:35:20.543Z,7.10
2018-05-24T23:37:48.670Z,7.23
2018-05-24T23:40:16.764Z,7.03
2018-05-24T23:42:44.799Z,6.97
2018-05-24T23:45:12.864Z,6.70
2018-05-24T23:47:40.946Z,6.53
2018-05-24T23:50:08.966Z,6.73
2018-05-24T23:52:37.775Z,6.90
2018-05-24T23:55:05.983Z,7.67
2018-05-24T23:57:34.069Z,7.83
